sensor_id;sensor_type;location;lat;lon;timestamp;temperature;humidity
15343;DHT22;7771;48.478;8.936;2023-05-19T00:02:18;14.20;99.90
15343;DHT22;7771;48.478;8.936;2023-05-19T00:04:45;14.30;99.90
15343;DHT22;7771;48.478;8.936;2023-05-19T00:07:12;14.20;99.90
15343;DHT22;7771;48.478;8.936;2023-05-19T00:09:39;14.20;99.90
15343;DHT22;7771;48.478;8.936;2023-05-19T00:12:07;14.20;99.90
15343;DHT22;7771;48.478;8.936;2023-05-19T00:14:34;14.10;99.90
15343;DHT22;7771;48.478;8.936;2023-05-19T00:17:01;14.10;99.90
15343;DHT22;7771;48.478;8.936;2023-05-19T00:19:28;14.10;99.90
15343;DHT22;7771;48.478;8.936;2023-05-19T00:21:55;14.10;99.90
15343;DHT22;7771;48.478;8.936;2023-05-19T00:24:21;14.10;99.90
15343;DHT22;7771;48.478;8.936;2023-05-19T00:26:49;14.10;99.90
15343;DHT22;7771;48.478;8.936;2023-05-19T00:29:15;14.10;99.90
15343;DHT22;7771;48.478;8.936;2023-05-19T00:31:43;14.00;99.90
15343;DHT22;7771;48.478;8.936;2023-05-19T00:34:11;14.00;99.90
15343;DHT22;7771;48.478;8.936;2023-05-19T00:36:37;14.10;99.90
15343;DHT22;7771;48.478;8.936;2023-05-19T00:39:04;14.00;99.90
15343;DHT22;7771;48.478;8.936;2023-05-19T00:41:32;14.00;99.90
15343;DHT22;7771;48.478;8.936;2023-05-19T00:43:59;14.00;99.90
15343;DHT22;7771;48.478;8.936;2023-05-19T00:46:26;14.00;99.90
15343;DHT22;7771;48.478;8.936;2023-05-19T00:48:53;14.00;99.90
15343;DHT22;7771;48.478;8.936;2023-05-19T00:51:21;14.00;99.90
15343;DHT22;7771;48.478;8.936;2023-05-19T00:53:47;14.00;99.90
15343;DHT22;7771;48.478;8.936;2023-05-19T00:56:14;14.00;99.90
15343;DHT22;7771;48.478;8.936;2023-05-19T00:58:42;14.00;99.90
15343;DHT22;7771;48.478;8.936;2023-05-19T01:01:10;14.00;99.90
15343;DHT22;7771;48.478;8.936;2023-05-19T01:03:36;14.00;99.90
15343;DHT22;7771;48.478;8.936;2023-05-19T01:06:04;14.00;99.90
15343;DHT22;7771;48.478;8.936;2023-05-19T01:08:33;14.00;99.90
15343;DHT22;7771;48.478;8.936;2023-05-19T01:10:59;14.00;99.90
15343;DHT22;7771;48.478;8.936;2023-05-19T01:13:27;14.00;99.90
15343;DHT22;7771;48.478;8.936;2023-05-19T01:15:58;13.90;99.90
15343;DHT22;7771;48.478;8.936;2023-05-19T01:18:28;13.90;99.90
15343;DHT22;7771;48.478;8.936;2023-05-19T01:20:55;14.00;99.90
15343;DHT22;7771;48.478;8.936;2023-05-19T01:23:39;14.00;99.90
15343;DHT22;7771;48.478;8.936;2023-05-19T01:26:45;14.00;99.90
15343;DHT22;7771;48.478;8.936;2023-05-19T01:30:10;13.90;99.90
15343;DHT22;7771;48.478;8.936;2023-05-19T01:31:42;13.90;99.90
15343;DHT22;7771;48.478;8.936;2023-05-19T01:34:10;14.00;99.90
15343;DHT22;7771;48.478;8.936;2023-05-19T01:36:37;14.00;99.90
15343;DHT22;7771;48.478;8.936;2023-05-19T01:39:04;13.90;99.90
15343;DHT22;7771;48.478;8.936;2023-05-19T01:41:30;13.90;99.90
15343;DHT22;7771;48.478;8.936;2023-05-19T01:43:58;13.90;99.90
15343;DHT22;7771;48.478;8.936;2023-05-19T01:48:53;13.90;99.90
15343;DHT22;7771;48.478;8.936;2023-05-19T01:51:20;13.90;99.90
15343;DHT22;7771;48.478;8.936;2023-05-19T01:53:48;13.90;99.90
15343;DHT22;7771;48.478;8.936;2023-05-19T01:56:16;13.90;99.90
15343;DHT22;7771;48.478;8.936;2023-05-19T01:58:45;13.80;99.90
15343;DHT22;7771;48.478;8.936;2023-05-19T02:01:19;13.80;99.90
15343;DHT22;7771;48.478;8.936;2023-05-19T02:03:53;13.80;99.90
15343;DHT22;7771;48.478;8.936;2023-05-19T02:06:21;13.80;99.90
15343;DHT22;7771;48.478;8.936;2023-05-19T02:08:50;13.80;99.90
15343;DHT22;7771;48.478;8.936;2023-05-19T02:11:18;13.80;99.90
15343;DHT22;7771;48.478;8.936;2023-05-19T02:13:42;13.80;99.90
15343;DHT22;7771;48.478;8.936;2023-05-19T02:16:07;13.80;99.90
15343;DHT22;7771;48.478;8.936;2023-05-19T02:18:34;13.80;99.90
15343;DHT22;7771;48.478;8.936;2023-05-19T02:21:01;13.80;99.90
15343;DHT22;7771;48.478;8.936;2023-05-19T02:23:28;13.70;99.90
15343;DHT22;7771;48.478;8.936;2023-05-19T02:25:55;13.80;99.90
15343;DHT22;7771;48.478;8.936;2023-05-19T02:28:21;13.80;99.90
15343;DHT22;7771;48.478;8.936;2023-05-19T02:30:49;13.80;99.90
15343;DHT22;7771;48.478;8.936;2023-05-19T02:33:17;13.80;99.90
15343;DHT22;7771;48.478;8.936;2023-05-19T02:35:44;13.70;99.90
15343;DHT22;7771;48.478;8.936;2023-05-19T02:38:11;13.80;99.90
15343;DHT22;7771;48.478;8.936;2023-05-19T02:40:38;13.70;99.90
15343;DHT22;7771;48.478;8.936;2023-05-19T02:43:06;13.70;99.90
15343;DHT22;7771;48.478;8.936;2023-05-19T02:45:32;13.70;99.90
15343;DHT22;7771;48.478;8.936;2023-05-19T02:47:59;13.70;99.90
15343;DHT22;7771;48.478;8.936;2023-05-19T02:50:27;13.70;99.90
15343;DHT22;7771;48.478;8.936;2023-05-19T02:52:54;13.70;99.90
15343;DHT22;7771;48.478;8.936;2023-05-19T02:55:20;13.70;99.90
15343;DHT22;7771;48.478;8.936;2023-05-19T02:57:48;13.70;99.90
15343;DHT22;7771;48.478;8.936;2023-05-19T03:00:15;13.70;99.90
15343;DHT22;7771;48.478;8.936;2023-05-19T03:02:43;13.70;99.90
15343;DHT22;7771;48.478;8.936;2023-05-19T03:05:11;13.70;99.90
15343;DHT22;7771;48.478;8.936;2023-05-19T03:07:37;13.70;99.90
15343;DHT22;7771;48.478;8.936;2023-05-19T03:10:06;13.70;99.90
15343;DHT22;7771;48.478;8.936;2023-05-19T03:12:34;13.70;99.90
15343;DHT22;7771;48.478;8.936;2023-05-19T03:15:01;13.60;99.90
15343;DHT22;7771;48.478;8.936;2023-05-19T03:17:29;13.60;99.90
15343;DHT22;7771;48.478;8.936;2023-05-19T03:22:23;13.60;99.90
15343;DHT22;7771;48.478;8.936;2023-05-19T03:24:51;13.60;99.90
15343;DHT22;7771;48.478;8.936;2023-05-19T03:27:18;13.50;99.90
15343;DHT22;7771;48.478;8.936;2023-05-19T03:29:44;13.60;99.90
15343;DHT22;7771;48.478;8.936;2023-05-19T03:32:12;13.60;99.90
15343;DHT22;7771;48.478;8.936;2023-05-19T03:34:39;13.50;99.90
15343;DHT22;7771;48.478;8.936;2023-05-19T03:37:06;13.50;99.90
15343;DHT22;7771;48.478;8.936;2023-05-19T03:39:33;13.50;99.90
15343;DHT22;7771;48.478;8.936;2023-05-19T03:42:00;13.50;99.90
15343;DHT22;7771;48.478;8.936;2023-05-19T03:49:23;13.50;99.90
15343;DHT22;7771;48.478;8.936;2023-05-19T03:51:50;13.50;99.90
15343;DHT22;7771;48.478;8.936;2023-05-19T03:54:17;13.40;99.90
15343;DHT22;7771;48.478;8.936;2023-05-19T03:56:45;13.40;99.90
15343;DHT22;7771;48.478;8.936;2023-05-19T03:59:12;13.40;99.90
15343;DHT22;7771;48.478;8.936;2023-05-19T04:01:41;13.40;99.90
15343;DHT22;7771;48.478;8.936;2023-05-19T04:04:07;13.40;99.90
15343;DHT22;7771;48.478;8.936;2023-05-19T04:06:34;13.40;99.90
15343;DHT22;7771;48.478;8.936;2023-05-19T04:09:02;13.40;99.90
15343;DHT22;7771;48.478;8.936;2023-05-19T04:11:29;13.40;99.90
15343;DHT22;7771;48.478;8.936;2023-05-19T04:16:24;13.40;99.90
15343;DHT22;7771;48.478;8.936;2023-05-19T04:21:18;13.40;99.90
15343;DHT22;7771;48.478;8.936;2023-05-19T04:23:46;13.40;99.90
15343;DHT22;7771;48.478;8.936;2023-05-19T04:26:13;13.40;99.90
15343;DHT22;7771;48.478;8.936;2023-05-19T04:28:41;13.40;99.90
15343;DHT22;7771;48.478;8.936;2023-05-19T04:31:08;13.40;99.90
15343;DHT22;7771;48.478;8.936;2023-05-19T04:33:35;13.50;99.90
15343;DHT22;7771;48.478;8.936;2023-05-19T04:38:30;13.50;99.90
15343;DHT22;7771;48.478;8.936;2023-05-19T04:43:26;13.50;99.90
15343;DHT22;7771;48.478;8.936;2023-05-19T04:45:53;13.60;99.90
15343;DHT22;7771;48.478;8.936;2023-05-19T04:48:20;13.60;99.90
15343;DHT22;7771;48.478;8.936;2023-05-19T04:50:47;13.60;99.90
15343;DHT22;7771;48.478;8.936;2023-05-19T04:53:14;13.60;99.90
15343;DHT22;7771;48.478;8.936;2023-05-19T04:55:41;13.70;99.90
15343;DHT22;7771;48.478;8.936;2023-05-19T04:58:09;13.70;99.90
15343;DHT22;7771;48.478;8.936;2023-05-19T05:00:36;13.70;99.90
15343;DHT22;7771;48.478;8.936;2023-05-19T05:05:31;13.80;99.90
15343;DHT22;7771;48.478;8.936;2023-05-19T05:07:58;13.90;99.90
15343;DHT22;7771;48.478;8.936;2023-05-19T05:10:25;13.90;99.90
15343;DHT22;7771;48.478;8.936;2023-05-19T05:12:52;14.00;99.90
15343;DHT22;7771;48.478;8.936;2023-05-19T05:15:20;14.00;99.90
15343;DHT22;7771;48.478;8.936;2023-05-19T05:17:48;14.10;99.90
15343;DHT22;7771;48.478;8.936;2023-05-19T05:20:15;14.20;99.90
15343;DHT22;7771;48.478;8.936;2023-05-19T05:22:42;14.30;99.90
15343;DHT22;7771;48.478;8.936;2023-05-19T05:25:10;14.30;99.90
15343;DHT22;7771;48.478;8.936;2023-05-19T05:27:37;14.40;99.90
15343;DHT22;7771;48.478;8.936;2023-05-19T05:30:05;14.50;99.90
15343;DHT22;7771;48.478;8.936;2023-05-19T05:32:32;14.40;99.90
15343;DHT22;7771;48.478;8.936;2023-05-19T05:35:00;14.50;99.90
15343;DHT22;7771;48.478;8.936;2023-05-19T05:37:27;14.60;99.90
15343;DHT22;7771;48.478;8.936;2023-05-19T05:42:21;14.70;99.90
15343;DHT22;7771;48.478;8.936;2023-05-19T05:44:48;14.70;99.90
15343;DHT22;7771;48.478;8.936;2023-05-19T05:49:43;14.90;99.90
15343;DHT22;7771;48.478;8.936;2023-05-19T05:52:11;14.90;99.90
15343;DHT22;7771;48.478;8.936;2023-05-19T05:57:08;14.90;99.90
15343;DHT22;7771;48.478;8.936;2023-05-19T05:59:35;14.90;99.90
15343;DHT22;7771;48.478;8.936;2023-05-19T06:06:58;14.90;99.90
15343;DHT22;7771;48.478;8.936;2023-05-19T06:09:25;14.90;99.90
15343;DHT22;7771;48.478;8.936;2023-05-19T06:11:52;14.90;99.90
15343;DHT22;7771;48.478;8.936;2023-05-19T06:14:20;14.90;99.90
15343;DHT22;7771;48.478;8.936;2023-05-19T06:16:46;15.00;99.90
15343;DHT22;7771;48.478;8.936;2023-05-19T06:19:14;15.00;99.90
15343;DHT22;7771;48.478;8.936;2023-05-19T06:21:40;15.10;99.90
15343;DHT22;7771;48.478;8.936;2023-05-19T06:24:08;15.20;99.90
15343;DHT22;7771;48.478;8.936;2023-05-19T06:26:35;15.20;99.90
15343;DHT22;7771;48.478;8.936;2023-05-19T06:29:02;15.30;99.90
15343;DHT22;7771;48.478;8.936;2023-05-19T06:36:25;15.70;99.90
15343;DHT22;7771;48.478;8.936;2023-05-19T06:38:51;16.20;99.90
15343;DHT22;7771;48.478;8.936;2023-05-19T06:41:19;16.70;99.90
15343;DHT22;7771;48.478;8.936;2023-05-19T06:43:47;17.30;99.70
15343;DHT22;7771;48.478;8.936;2023-05-19T06:48:41;18.80;97.20
15343;DHT22;7771;48.478;8.936;2023-05-19T06:53:37;19.20;95.10
15343;DHT22;7771;48.478;8.936;2023-05-19T06:58:31;18.80;95.10
15343;DHT22;7771;48.478;8.936;2023-05-19T07:03:26;18.40;95.70
15343;DHT22;7771;48.478;8.936;2023-05-19T07:05:53;18.10;95.70
15343;DHT22;7771;48.478;8.936;2023-05-19T07:08:20;17.80;96.10
15343;DHT22;7771;48.478;8.936;2023-05-19T07:13:15;17.50;96.50
15343;DHT22;7771;48.478;8.936;2023-05-19T07:15:42;17.30;96.60
15343;DHT22;7771;48.478;8.936;2023-05-19T07:18:08;17.10;97.00
15343;DHT22;7771;48.478;8.936;2023-05-19T07:23:03;16.90;97.70
15343;DHT22;7771;48.478;8.936;2023-05-19T07:25:29;17.00;97.80
15343;DHT22;7771;48.478;8.936;2023-05-19T07:27:57;17.10;97.80
15343;DHT22;7771;48.478;8.936;2023-05-19T07:30:25;17.00;97.70
15343;DHT22;7771;48.478;8.936;2023-05-19T07:32:51;17.10;97.80
15343;DHT22;7771;48.478;8.936;2023-05-19T07:35:19;17.10;97.40
15343;DHT22;7771;48.478;8.936;2023-05-19T07:37:45;17.00;97.40
15343;DHT22;7771;48.478;8.936;2023-05-19T07:40:12;16.90;97.60
15343;DHT22;7771;48.478;8.936;2023-05-19T07:42:39;16.80;97.80
15343;DHT22;7771;48.478;8.936;2023-05-19T07:45:07;16.70;98.00
15343;DHT22;7771;48.478;8.936;2023-05-19T07:47:34;16.60;98.20
15343;DHT22;7771;48.478;8.936;2023-05-19T07:50:01;16.60;98.20
15343;DHT22;7771;48.478;8.936;2023-05-19T07:57:25;16.60;98.30
15343;DHT22;7771;48.478;8.936;2023-05-19T07:59:53;16.60;98.50
15343;DHT22;7771;48.478;8.936;2023-05-19T08:02:20;16.50;98.50
15343;DHT22;7771;48.478;8.936;2023-05-19T08:04:48;16.60;98.70
15343;DHT22;7771;48.478;8.936;2023-05-19T08:07:16;16.60;98.70
15343;DHT22;7771;48.478;8.936;2023-05-19T08:09:42;16.50;98.90
15343;DHT22;7771;48.478;8.936;2023-05-19T08:12:09;16.60;98.60
15343;DHT22;7771;48.478;8.936;2023-05-19T08:14:36;16.70;98.10
15343;DHT22;7771;48.478;8.936;2023-05-19T08:17:04;16.60;98.00
15343;DHT22;7771;48.478;8.936;2023-05-19T08:19:32;16.60;98.20
15343;DHT22;7771;48.478;8.936;2023-05-19T08:22:00;16.50;98.50
15343;DHT22;7771;48.478;8.936;2023-05-19T08:26:55;16.60;98.70
15343;DHT22;7771;48.478;8.936;2023-05-19T08:29:23;16.60;98.90
15343;DHT22;7771;48.478;8.936;2023-05-19T08:31:51;16.70;98.20
15343;DHT22;7771;48.478;8.936;2023-05-19T08:34:18;16.80;98.00
15343;DHT22;7771;48.478;8.936;2023-05-19T08:36:45;16.90;97.80
15343;DHT22;7771;48.478;8.936;2023-05-19T08:39:12;17.00;97.90
15343;DHT22;7771;48.478;8.936;2023-05-19T08:41:39;17.10;97.60
15343;DHT22;7771;48.478;8.936;2023-05-19T08:44:07;17.20;97.20
15343;DHT22;7771;48.478;8.936;2023-05-19T08:46:34;17.10;97.30
15343;DHT22;7771;48.478;8.936;2023-05-19T08:49:03;17.20;97.30
15343;DHT22;7771;48.478;8.936;2023-05-19T08:53:56;17.20;96.90
15343;DHT22;7771;48.478;8.936;2023-05-19T08:56:22;17.10;96.90
15343;DHT22;7771;48.478;8.936;2023-05-19T08:58:50;17.00;97.30
15343;DHT22;7771;48.478;8.936;2023-05-19T09:06:13;16.90;98.00
15343;DHT22;7771;48.478;8.936;2023-05-19T09:08:40;16.90;97.70
15343;DHT22;7771;48.478;8.936;2023-05-19T09:11:08;16.90;97.50
15343;DHT22;7771;48.478;8.936;2023-05-19T09:13:34;16.90;97.40
15343;DHT22;7771;48.478;8.936;2023-05-19T09:16:01;16.90;97.80
15343;DHT22;7771;48.478;8.936;2023-05-19T09:18:28;16.90;97.60
15343;DHT22;7771;48.478;8.936;2023-05-19T09:23:26;17.00;97.20
15343;DHT22;7771;48.478;8.936;2023-05-19T09:25:53;16.90;97.20
15343;DHT22;7771;48.478;8.936;2023-05-19T09:28:23;16.80;97.50
15343;DHT22;7771;48.478;8.936;2023-05-19T09:30:58;16.70;97.60
15343;DHT22;7771;48.478;8.936;2023-05-19T09:33:24;16.60;97.80
15343;DHT22;7771;48.478;8.936;2023-05-19T09:35:52;16.60;98.10
15343;DHT22;7771;48.478;8.936;2023-05-19T09:38:19;16.60;97.90
15343;DHT22;7771;48.478;8.936;2023-05-19T09:40:48;16.60;97.70
15343;DHT22;7771;48.478;8.936;2023-05-19T09:43:14;16.60;97.70
15343;DHT22;7771;48.478;8.936;2023-05-19T09:45:42;16.70;97.70
15343;DHT22;7771;48.478;8.936;2023-05-19T09:48:08;16.70;97.70
15343;DHT22;7771;48.478;8.936;2023-05-19T09:50:36;16.80;97.60
15343;DHT22;7771;48.478;8.936;2023-05-19T09:55:30;16.70;97.90
15343;DHT22;7771;48.478;8.936;2023-05-19T09:57:58;16.80;98.10
15343;DHT22;7771;48.478;8.936;2023-05-19T10:10:19;17.00;97.30
15343;DHT22;7771;48.478;8.936;2023-05-19T10:12:45;17.00;97.30
15343;DHT22;7771;48.478;8.936;2023-05-19T10:15:14;17.00;97.50
15343;DHT22;7771;48.478;8.936;2023-05-19T10:17:41;17.10;97.30
15343;DHT22;7771;48.478;8.936;2023-05-19T10:20:08;17.00;97.10
15343;DHT22;7771;48.478;8.936;2023-05-19T10:25:03;16.90;97.60
15343;DHT22;7771;48.478;8.936;2023-05-19T10:32:27;16.90;97.50
15343;DHT22;7771;48.478;8.936;2023-05-19T10:35:00;16.90;97.40
15343;DHT22;7771;48.478;8.936;2023-05-19T10:37:30;16.90;97.40
15343;DHT22;7771;48.478;8.936;2023-05-19T10:42:31;17.00;97.10
15343;DHT22;7771;48.478;8.936;2023-05-19T10:44:57;17.00;97.00
15343;DHT22;7771;48.478;8.936;2023-05-19T10:47:25;16.90;97.00
15343;DHT22;7771;48.478;8.936;2023-05-19T10:49:52;16.90;97.30
15343;DHT22;7771;48.478;8.936;2023-05-19T10:52:21;16.80;97.30
15343;DHT22;7771;48.478;8.936;2023-05-19T10:54:47;16.80;97.50
15343;DHT22;7771;48.478;8.936;2023-05-19T10:57:15;16.70;97.20
15343;DHT22;7771;48.478;8.936;2023-05-19T10:59:42;16.70;97.30
15343;DHT22;7771;48.478;8.936;2023-05-19T11:02:09;16.80;97.60
15343;DHT22;7771;48.478;8.936;2023-05-19T11:04:44;16.80;97.70
15343;DHT22;7771;48.478;8.936;2023-05-19T11:14:32;16.90;97.50
15343;DHT22;7771;48.478;8.936;2023-05-19T11:16:59;16.90;96.90
15343;DHT22;7771;48.478;8.936;2023-05-19T11:19:28;16.90;97.40
15343;DHT22;7771;48.478;8.936;2023-05-19T11:21:55;16.90;97.30
15343;DHT22;7771;48.478;8.936;2023-05-19T11:24:42;16.90;97.20
15343;DHT22;7771;48.478;8.936;2023-05-19T11:27:25;16.90;97.30
15343;DHT22;7771;48.478;8.936;2023-05-19T11:29:55;16.80;97.20
15343;DHT22;7771;48.478;8.936;2023-05-19T11:32:20;16.80;97.20
15343;DHT22;7771;48.478;8.936;2023-05-19T11:34:48;16.70;97.30
15343;DHT22;7771;48.478;8.936;2023-05-19T11:37:14;16.70;97.50
15343;DHT22;7771;48.478;8.936;2023-05-19T11:39:42;16.80;97.20
15343;DHT22;7771;48.478;8.936;2023-05-19T11:42:09;16.80;97.30
15343;DHT22;7771;48.478;8.936;2023-05-19T11:49:33;16.90;97.40
15343;DHT22;7771;48.478;8.936;2023-05-19T11:52:00;16.90;97.10
15343;DHT22;7771;48.478;8.936;2023-05-19T11:56:55;17.00;97.10
15343;DHT22;7771;48.478;8.936;2023-05-19T11:59:35;16.90;97.20
15343;DHT22;7771;48.478;8.936;2023-05-19T12:02:18;17.00;97.10
15343;DHT22;7771;48.478;8.936;2023-05-19T12:04:46;17.20;97.10
15343;DHT22;7771;48.478;8.936;2023-05-19T12:07:14;17.20;96.70
15343;DHT22;7771;48.478;8.936;2023-05-19T12:12:14;17.40;96.40
15343;DHT22;7771;48.478;8.936;2023-05-19T12:14:40;17.40;96.30
15343;DHT22;7771;48.478;8.936;2023-05-19T12:22:05;17.50;95.90
15343;DHT22;7771;48.478;8.936;2023-05-19T12:24:33;17.50;96.20
15343;DHT22;7771;48.478;8.936;2023-05-19T12:31:59;17.60;96.10
15343;DHT22;7771;48.478;8.936;2023-05-19T12:34:26;17.50;96.20
15343;DHT22;7771;48.478;8.936;2023-05-19T12:36:54;17.50;96.00
15343;DHT22;7771;48.478;8.936;2023-05-19T12:39:21;17.40;96.10
15343;DHT22;7771;48.478;8.936;2023-05-19T12:41:49;17.30;96.30
15343;DHT22;7771;48.478;8.936;2023-05-19T12:44:15;17.30;96.30
15343;DHT22;7771;48.478;8.936;2023-05-19T12:46:43;17.20;96.50
15343;DHT22;7771;48.478;8.936;2023-05-19T12:49:10;17.10;96.60
15343;DHT22;7771;48.478;8.936;2023-05-19T12:54:05;17.10;96.70
15343;DHT22;7771;48.478;8.936;2023-05-19T12:59:01;17.10;97.00
15343;DHT22;7771;48.478;8.936;2023-05-19T13:01:28;17.20;97.00
15343;DHT22;7771;48.478;8.936;2023-05-19T13:03:55;17.20;96.80
15343;DHT22;7771;48.478;8.936;2023-05-19T13:06:22;17.30;96.70
15343;DHT22;7771;48.478;8.936;2023-05-19T13:08:50;17.30;96.90
15343;DHT22;7771;48.478;8.936;2023-05-19T13:11:17;17.30;97.00
15343;DHT22;7771;48.478;8.936;2023-05-19T13:16:13;17.40;96.80
15343;DHT22;7771;48.478;8.936;2023-05-19T13:21:08;17.40;96.50
15343;DHT22;7771;48.478;8.936;2023-05-19T13:23:34;17.50;96.50
15343;DHT22;7771;48.478;8.936;2023-05-19T13:26:02;17.50;96.20
15343;DHT22;7771;48.478;8.936;2023-05-19T13:30:58;17.40;96.10
15343;DHT22;7771;48.478;8.936;2023-05-19T13:33:25;17.40;96.10
15343;DHT22;7771;48.478;8.936;2023-05-19T13:35:52;17.40;96.30
15343;DHT22;7771;48.478;8.936;2023-05-19T13:38:19;17.40;96.40
15343;DHT22;7771;48.478;8.936;2023-05-19T13:40:47;17.50;96.20
15343;DHT22;7771;48.478;8.936;2023-05-19T13:43:15;17.60;96.00
15343;DHT22;7771;48.478;8.936;2023-05-19T13:45:41;17.60;96.00
15343;DHT22;7771;48.478;8.936;2023-05-19T13:48:09;17.70;95.90
15343;DHT22;7771;48.478;8.936;2023-05-19T13:55:32;17.70;96.10
15343;DHT22;7771;48.478;8.936;2023-05-19T13:58:00;17.80;96.30
15343;DHT22;7771;48.478;8.936;2023-05-19T14:02:54;17.90;95.80
15343;DHT22;7771;48.478;8.936;2023-05-19T14:13:04;18.10;95.40
15343;DHT22;7771;48.478;8.936;2023-05-19T14:15:32;18.00;95.50
15343;DHT22;7771;48.478;8.936;2023-05-19T14:17:58;18.00;95.50
15343;DHT22;7771;48.478;8.936;2023-05-19T14:20:25;17.90;95.80
15343;DHT22;7771;48.478;8.936;2023-05-19T14:22:52;17.90;95.60
15343;DHT22;7771;48.478;8.936;2023-05-19T14:25:19;17.80;95.40
15343;DHT22;7771;48.478;8.936;2023-05-19T14:27:46;17.70;95.80
15343;DHT22;7771;48.478;8.936;2023-05-19T14:32:41;17.80;95.90
15343;DHT22;7771;48.478;8.936;2023-05-19T14:35:09;17.80;95.90
15343;DHT22;7771;48.478;8.936;2023-05-19T14:42:32;18.00;96.00
15343;DHT22;7771;48.478;8.936;2023-05-19T14:45:00;18.00;95.90
15343;DHT22;7771;48.478;8.936;2023-05-19T14:47:27;18.00;95.90
15343;DHT22;7771;48.478;8.936;2023-05-19T14:49:53;18.00;95.90
15343;DHT22;7771;48.478;8.936;2023-05-19T14:52:21;18.00;96.00
15343;DHT22;7771;48.478;8.936;2023-05-19T14:54:48;17.90;96.00
15343;DHT22;7771;48.478;8.936;2023-05-19T14:57:14;17.80;96.30
15343;DHT22;7771;48.478;8.936;2023-05-19T15:02:10;17.80;96.50
15343;DHT22;7771;48.478;8.936;2023-05-19T15:09:32;17.80;96.80
15343;DHT22;7771;48.478;8.936;2023-05-19T15:21:51;17.70;96.40
15343;DHT22;7771;48.478;8.936;2023-05-19T15:24:18;17.70;96.70
15343;DHT22;7771;48.478;8.936;2023-05-19T15:26:45;17.60;96.80
15343;DHT22;7771;48.478;8.936;2023-05-19T15:29:13;17.60;96.70
15343;DHT22;7771;48.478;8.936;2023-05-19T15:31:39;17.70;96.70
15343;DHT22;7771;48.478;8.936;2023-05-19T15:34:06;17.70;96.80
15343;DHT22;7771;48.478;8.936;2023-05-19T15:36:33;17.60;96.90
15343;DHT22;7771;48.478;8.936;2023-05-19T15:41:28;17.70;96.90
15343;DHT22;7771;48.478;8.936;2023-05-19T15:43:55;17.60;96.90
15343;DHT22;7771;48.478;8.936;2023-05-19T15:46:22;17.60;96.90
15343;DHT22;7771;48.478;8.936;2023-05-19T15:51:17;17.70;96.50
15343;DHT22;7771;48.478;8.936;2023-05-19T15:53:44;17.60;96.50
15343;DHT22;7771;48.478;8.936;2023-05-19T15:56:12;17.60;96.50
15343;DHT22;7771;48.478;8.936;2023-05-19T15:58:38;17.50;96.60
15343;DHT22;7771;48.478;8.936;2023-05-19T16:01:06;17.60;96.60
15343;DHT22;7771;48.478;8.936;2023-05-19T16:03:33;17.50;96.60
15343;DHT22;7771;48.478;8.936;2023-05-19T16:10:57;17.50;96.70
15343;DHT22;7771;48.478;8.936;2023-05-19T16:13:23;17.60;96.60
15343;DHT22;7771;48.478;8.936;2023-05-19T16:15:50;17.50;96.80
15343;DHT22;7771;48.478;8.936;2023-05-19T16:18:17;17.40;97.00
15343;DHT22;7771;48.478;8.936;2023-05-19T16:20:44;17.40;97.10
15343;DHT22;7771;48.478;8.936;2023-05-19T16:23:12;17.50;97.10
15343;DHT22;7771;48.478;8.936;2023-05-19T16:25:39;17.50;97.00
15343;DHT22;7771;48.478;8.936;2023-05-19T16:28:06;17.60;96.90
15343;DHT22;7771;48.478;8.936;2023-05-19T16:30:33;17.60;96.80
15343;DHT22;7771;48.478;8.936;2023-05-19T16:37:56;17.70;96.70
15343;DHT22;7771;48.478;8.936;2023-05-19T16:40:22;17.60;96.90
15343;DHT22;7771;48.478;8.936;2023-05-19T16:42:51;17.70;96.60
15343;DHT22;7771;48.478;8.936;2023-05-19T16:47:44;17.60;97.00
15343;DHT22;7771;48.478;8.936;2023-05-19T16:50:12;17.60;96.80
15343;DHT22;7771;48.478;8.936;2023-05-19T16:52:38;17.50;96.80
15343;DHT22;7771;48.478;8.936;2023-05-19T16:55:06;17.40;96.90
15343;DHT22;7771;48.478;8.936;2023-05-19T16:57:33;17.40;97.40
15343;DHT22;7771;48.478;8.936;2023-05-19T17:00:00;17.40;97.60
15343;DHT22;7771;48.478;8.936;2023-05-19T17:02:27;17.40;97.50
15343;DHT22;7771;48.478;8.936;2023-05-19T17:04:54;17.40;97.40
15343;DHT22;7771;48.478;8.936;2023-05-19T17:09:49;17.30;97.50
15343;DHT22;7771;48.478;8.936;2023-05-19T17:12:17;17.40;97.60
15343;DHT22;7771;48.478;8.936;2023-05-19T17:14:44;17.40;97.70
15343;DHT22;7771;48.478;8.936;2023-05-19T17:17:11;17.30;97.60
15343;DHT22;7771;48.478;8.936;2023-05-19T17:19:38;17.30;97.60
15343;DHT22;7771;48.478;8.936;2023-05-19T17:24:33;17.20;97.50
15343;DHT22;7771;48.478;8.936;2023-05-19T17:27:00;17.10;97.60
15343;DHT22;7771;48.478;8.936;2023-05-19T17:29:27;17.10;97.80
15343;DHT22;7771;48.478;8.936;2023-05-19T17:31:54;17.00;97.70
15343;DHT22;7771;48.478;8.936;2023-05-19T17:34:21;17.00;97.90
15343;DHT22;7771;48.478;8.936;2023-05-19T17:36:50;17.00;97.90
15343;DHT22;7771;48.478;8.936;2023-05-19T17:39:18;17.00;98.00
15343;DHT22;7771;48.478;8.936;2023-05-19T17:41:46;17.00;98.00
15343;DHT22;7771;48.478;8.936;2023-05-19T17:44:12;17.00;97.80
15343;DHT22;7771;48.478;8.936;2023-05-19T17:46:40;17.00;97.80
15343;DHT22;7771;48.478;8.936;2023-05-19T17:49:08;17.00;98.00
15343;DHT22;7771;48.478;8.936;2023-05-19T17:51:35;16.90;98.20
15343;DHT22;7771;48.478;8.936;2023-05-19T17:54:02;17.00;98.20
15343;DHT22;7771;48.478;8.936;2023-05-19T17:56:31;16.90;98.50
15343;DHT22;7771;48.478;8.936;2023-05-19T18:01:25;16.90;98.40
15343;DHT22;7771;48.478;8.936;2023-05-19T18:03:51;16.80;98.50
15343;DHT22;7771;48.478;8.936;2023-05-19T18:06:19;16.80;98.50
15343;DHT22;7771;48.478;8.936;2023-05-19T18:11:13;16.80;98.50
15343;DHT22;7771;48.478;8.936;2023-05-19T18:13:42;16.80;98.50
15343;DHT22;7771;48.478;8.936;2023-05-19T18:16:09;16.80;98.60
15343;DHT22;7771;48.478;8.936;2023-05-19T18:23:32;16.60;98.90
15343;DHT22;7771;48.478;8.936;2023-05-19T18:25:58;16.60;99.00
15343;DHT22;7771;48.478;8.936;2023-05-19T18:30:59;16.50;99.20
15343;DHT22;7771;48.478;8.936;2023-05-19T18:33:26;16.40;99.40
15343;DHT22;7771;48.478;8.936;2023-05-19T18:35:53;16.40;99.50
15343;DHT22;7771;48.478;8.936;2023-05-19T18:38:20;16.30;99.80
15343;DHT22;7771;48.478;8.936;2023-05-19T18:40:46;16.20;99.90
15343;DHT22;7771;48.478;8.936;2023-05-19T18:43:13;16.20;99.90
15343;DHT22;7771;48.478;8.936;2023-05-19T18:45:40;16.10;99.90
15343;DHT22;7771;48.478;8.936;2023-05-19T18:48:07;16.00;99.90
15343;DHT22;7771;48.478;8.936;2023-05-19T18:50:35;16.00;99.90
15343;DHT22;7771;48.478;8.936;2023-05-19T18:53:02;15.90;99.90
15343;DHT22;7771;48.478;8.936;2023-05-19T18:55:29;15.90;99.90
15343;DHT22;7771;48.478;8.936;2023-05-19T19:00:25;15.70;99.90
15343;DHT22;7771;48.478;8.936;2023-05-19T19:02:52;15.60;99.90
15343;DHT22;7771;48.478;8.936;2023-05-19T19:05:19;15.60;99.90
15343;DHT22;7771;48.478;8.936;2023-05-19T19:10:14;15.40;99.90
15343;DHT22;7771;48.478;8.936;2023-05-19T19:12:40;15.30;99.90
15343;DHT22;7771;48.478;8.936;2023-05-19T19:15:08;15.20;99.90
15343;DHT22;7771;48.478;8.936;2023-05-19T19:22:32;15.00;99.90
15343;DHT22;7771;48.478;8.936;2023-05-19T19:27:28;14.90;99.90